createdAt,value
2018-08-08T00:00:21.267Z,5.97
2018-08-08T00:02:50.845Z,3.87
2018-08-08T00:05:19.790Z,8.27
2018-08-08T00:07:48.980Z,6.00
2018-08-08T00:10:17.861Z,6.90
2018-08-08T00:12:47.036Z,6.80
2018-08-08T00:15:16.203Z,5.97
2018-08-08T00:17:46.023Z,4.77
2018-08-08T00:20:15.511Z,8.70
2018-08-08T00:22:44.515Z,3.80
2018-08-08T00:25:14.484Z,3.53
2018-08-08T00:27:43.729Z,6.90
2018-08-08T00:30:13.731Z,3.87
2018-08-08T00:32:43.347Z,3.20
2018-08-08T00:35:12.470Z,5.53
2018-08-08T00:37:41.395Z,9.20
2018-08-08T00:40:12.698Z,8.27
2018-08-08T00:42:42.178Z,5.03
2018-08-08T00:45:13.346Z,5.03
2018-08-08T00:47:43.129Z,5.43
2018-08-08T00:50:13.381Z,6.60
2018-08-08T00:52:42.682Z,5.40
2018-08-08T00:55:11.856Z,8.30
2018-08-08T00:57:40.964Z,8.03
2018-08-08T01:00:17.797Z,9.97
2018-08-08T01:02:47.151Z,5.53
2018-08-08T01:05:16.738Z,5.13
2018-08-08T01:07:46.714Z,6.33
2018-08-08T01:10:15.715Z,6.10
2018-08-08T01:12:44.600Z,7.70
2018-08-08T01:15:14.146Z,7.03
2018-08-08T01:17:43.039Z,7.97
2018-08-08T01:20:14.422Z,7.30
2018-08-08T01:22:43.345Z,5.47
2018-08-08T01:25:14.133Z,7.17
2018-08-08T01:27:43.224Z,5.63
2018-08-08T01:30:14.075Z,5.37
2018-08-08T01:32:43.026Z,6.17
2018-08-08T01:35:11.989Z,4.20
2018-08-08T01:37:41.254Z,8.53
2018-08-08T01:40:13.123Z,3.97
2018-08-08T01:42:42.795Z,11.90
2018-08-08T01:45:13.121Z,8.73
2018-08-08T01:47:42.066Z,5.10
2018-08-08T01:50:12.452Z,6.70
2018-08-08T01:52:41.409Z,5.53
2018-08-08T01:55:12.263Z,7.07
2018-08-08T01:57:42.718Z,6.70
2018-08-08T02:00:15.584Z,8.90
2018-08-08T02:02:44.657Z,5.53
2018-08-08T02:05:13.680Z,7.77
2018-08-08T02:07:43.018Z,5.23
2018-08-08T02:10:21.869Z,6.50
2018-08-08T02:12:51.547Z,7.03
2018-08-08T02:15:20.442Z,5.60
2018-08-08T02:17:49.332Z,4.43
2018-08-08T02:20:18.231Z,5.90
2018-08-08T02:22:47.144Z,5.50
2018-08-08T02:25:17.063Z,6.83
2018-08-08T02:27:45.943Z,7.70
2018-08-08T02:30:18.234Z,4.53
2018-08-08T02:32:48.095Z,7.30
2018-08-08T02:35:17.107Z,10.00
2018-08-08T02:37:46.004Z,4.70
2018-08-08T02:40:15.186Z,7.83
2018-08-08T02:42:44.083Z,6.33
2018-08-08T02:45:15.516Z,6.70
2018-08-08T02:47:44.867Z,4.30
2018-08-08T02:50:15.235Z,7.07
2018-08-08T02:52:44.180Z,7.20
2018-08-08T02:55:14.030Z,6.90
2018-08-08T02:57:43.219Z,11.33
2018-08-08T03:00:15.161Z,7.77
2018-08-08T03:02:44.127Z,7.70
2018-08-08T03:05:13.032Z,5.63
2018-08-08T03:07:43.195Z,7.43
2018-08-08T03:10:13.805Z,6.43
2018-08-08T03:12:42.790Z,6.97
2018-08-08T03:15:13.799Z,4.40
2018-08-08T03:17:42.811Z,5.80
2018-08-08T03:20:13.371Z,6.57
2018-08-08T03:22:42.742Z,8.23
2018-08-08T03:25:13.264Z,6.20
2018-08-08T03:27:42.882Z,11.87
2018-08-08T03:30:16.005Z,9.43
2018-08-08T03:32:44.939Z,9.37
2018-08-08T03:35:13.963Z,6.97
2018-08-08T03:37:42.944Z,7.40
2018-08-08T03:40:13.424Z,6.77
2018-08-08T03:42:42.598Z,7.00
2018-08-08T03:45:13.004Z,5.73
2018-08-08T03:47:41.887Z,7.73
2018-08-08T03:50:11.911Z,9.03
2018-08-08T03:52:41.898Z,7.50
2018-08-08T03:55:11.801Z,8.17
2018-08-08T03:57:41.253Z,6.50
2018-08-08T04:00:13.332Z,8.27
2018-08-08T04:02:43.011Z,6.27
2018-08-08T04:05:11.797Z,6.50
2018-08-08T04:07:40.739Z,8.57
2018-08-08T04:10:10.318Z,5.67
2018-08-08T04:12:39.515Z,9.43
2018-08-08T04:15:13.540Z,12.10
2018-08-08T04:17:42.814Z,9.50
2018-08-08T04:20:11.899Z,9.03
2018-08-08T04:22:40.830Z,8.53
2018-08-08T04:25:11.111Z,13.20
2018-08-08T04:27:40.423Z,7.17
2018-08-08T04:30:14.599Z,9.73
2018-08-08T04:32:43.620Z,7.53
2018-08-08T04:35:12.510Z,9.43
2018-08-08T04:37:41.427Z,8.90
2018-08-08T04:40:13.008Z,8.60
2018-08-08T04:42:43.290Z,12.90
2018-08-08T04:45:12.238Z,8.93
2018-08-08T04:47:41.879Z,11.17
2018-08-08T04:50:11.375Z,9.30
2018-08-08T04:52:41.599Z,12.30
2018-08-08T04:55:11.952Z,10.77
2018-08-08T04:57:41.250Z,8.43
2018-08-08T05:00:12.971Z,7.97
2018-08-08T05:02:41.999Z,10.50
2018-08-08T05:05:10.916Z,6.50
2018-08-08T05:07:39.821Z,10.90
2018-08-08T05:10:10.529Z,10.90
2018-08-08T05:12:40.516Z,10.60
2018-08-08T05:15:14.058Z,15.20
2018-08-08T05:17:43.327Z,10.37
2018-08-08T05:20:13.669Z,15.10
2018-08-08T05:22:42.735Z,12.27
2018-08-08T05:25:11.903Z,21.17
2018-08-08T05:27:40.823Z,11.33
2018-08-08T05:30:13.518Z,15.80
2018-08-08T05:32:42.829Z,18.73
2018-08-08T05:35:12.509Z,11.00
2018-08-08T05:37:41.407Z,10.80
2018-08-08T05:40:16.874Z,15.57
2018-08-08T05:42:46.422Z,12.50
2018-08-08T05:45:15.976Z,11.47
2018-08-08T05:47:46.353Z,13.60
2018-08-08T05:50:15.289Z,13.03
2018-08-08T05:52:45.164Z,8.63
2018-08-08T05:55:15.246Z,14.40
2018-08-08T05:57:44.925Z,10.30
2018-08-08T06:00:17.175Z,10.43
2018-08-08T06:02:46.079Z,8.67
2018-08-08T06:05:15.903Z,11.60
2018-08-08T06:07:44.834Z,12.93
2018-08-08T06:10:13.772Z,14.73
2018-08-08T06:12:42.903Z,11.80
2018-08-08T06:15:14.176Z,9.83
2018-08-08T06:17:43.072Z,13.43
2018-08-08T06:20:15.519Z,8.80
2018-08-08T06:22:45.635Z,10.30
2018-08-08T06:25:14.859Z,13.00
2018-08-08T06:27:44.403Z,13.67
2018-08-08T06:30:18.470Z,17.90
2018-08-08T06:32:47.820Z,8.30
2018-08-08T06:35:18.108Z,14.20
2018-08-08T06:37:47.128Z,14.17
2018-08-08T06:40:16.098Z,10.63
2018-08-08T06:42:45.618Z,14.20
2018-08-08T06:45:16.603Z,9.90
2018-08-08T06:47:45.556Z,8.43
2018-08-08T06:50:15.532Z,14.20
2018-08-08T06:52:44.496Z,12.00
2018-08-08T06:55:14.555Z,11.67
2018-08-08T06:57:43.491Z,10.70
2018-08-08T07:00:22.016Z,12.70
2018-08-08T07:02:51.043Z,10.63
2018-08-08T07:05:20.195Z,14.40
2018-08-08T07:07:49.829Z,12.40
2018-08-08T07:10:18.817Z,14.07
2018-08-08T07:12:48.252Z,15.67
2018-08-08T07:15:19.085Z,10.93
2018-08-08T07:17:48.768Z,15.03
2018-08-08T07:20:18.685Z,10.10
2018-08-08T07:22:48.443Z,7.70
2018-08-08T07:25:18.529Z,8.60
2018-08-08T07:27:48.052Z,8.70
2018-08-08T07:30:18.127Z,15.87
2018-08-08T07:32:47.053Z,8.67
2018-08-08T07:35:15.992Z,9.60
2018-08-08T07:37:45.879Z,8.90
2018-08-08T07:40:16.335Z,11.93
2018-08-08T07:42:46.552Z,12.97
2018-08-08T07:45:21.831Z,11.13
2018-08-08T07:47:50.894Z,9.00
2018-08-08T07:50:19.854Z,6.70
2018-08-08T07:52:49.007Z,15.10
2018-08-08T07:55:18.568Z,13.13
2018-08-08T07:57:55.923Z,19.20
2018-08-08T08:00:28.791Z,10.63
2018-08-08T08:02:58.625Z,7.63
2018-08-08T08:05:27.854Z,8.93
2018-08-08T08:07:57.574Z,9.70
2018-08-08T08:10:27.584Z,9.30
2018-08-08T08:12:56.950Z,10.03
2018-08-08T08:15:26.214Z,11.10
2018-08-08T08:17:55.699Z,13.23
2018-08-08T08:20:24.804Z,13.73
2018-08-08T08:22:54.054Z,9.30
2018-08-08T08:25:22.977Z,14.53
2018-08-08T08:27:51.947Z,14.87
2018-08-08T08:30:21.107Z,10.67
2018-08-08T08:32:50.426Z,7.20
2018-08-08T08:35:19.942Z,17.57
2018-08-08T08:37:48.847Z,10.13
2018-08-08T08:40:17.853Z,10.30
2018-08-08T08:42:47.056Z,7.47
2018-08-08T08:45:15.989Z,12.10
2018-08-08T08:47:44.939Z,11.17
2018-08-08T08:50:13.909Z,9.53
2018-08-08T08:52:42.891Z,9.20
2018-08-08T08:55:11.894Z,7.57
2018-08-08T08:57:41.610Z,8.40
2018-08-08T09:00:12.472Z,10.90
2018-08-08T09:02:41.873Z,7.63
2018-08-08T09:05:11.400Z,7.60
2018-08-08T09:07:40.355Z,7.47
2018-08-08T09:10:10.379Z,9.33
2018-08-08T09:12:42.374Z,10.03
2018-08-08T09:15:13.226Z,7.57
2018-08-08T09:17:42.124Z,7.67
2018-08-08T09:20:11.295Z,7.40
2018-08-08T09:22:40.202Z,8.07
2018-08-08T09:25:09.244Z,10.07
2018-08-08T09:27:38.195Z,8.10
2018-08-08T09:30:10.113Z,9.57
2018-08-08T09:32:40.626Z,6.80
2018-08-08T09:35:09.836Z,8.30
2018-08-08T09:37:39.081Z,7.77
2018-08-08T09:40:08.850Z,7.23
2018-08-08T09:42:38.165Z,8.40
2018-08-08T09:45:08.410Z,7.93
2018-08-08T09:47:39.164Z,6.60
2018-08-08T09:50:08.908Z,10.50
2018-08-08T09:52:38.967Z,7.90
2018-08-08T09:55:07.885Z,8.17
2018-08-08T09:57:37.109Z,8.73
2018-08-08T10:00:06.682Z,7.13
2018-08-08T10:02:38.372Z,10.93
2018-08-08T10:05:08.320Z,7.27
2018-08-08T10:07:37.223Z,7.30
2018-08-08T10:10:06.475Z,8.30
2018-08-08T10:12:35.405Z,7.47
2018-08-08T10:15:05.254Z,8.00
2018-08-08T10:17:34.590Z,16.00
2018-08-08T10:20:03.981Z,7.73
2018-08-08T10:22:32.890Z,11.23
2018-08-08T10:25:02.183Z,7.83
2018-08-08T10:27:31.113Z,7.70
2018-08-08T10:30:00.015Z,11.20
2018-08-08T10:32:28.958Z,9.43
2018-08-08T10:34:57.877Z,7.80
2018-08-08T10:37:26.755Z,9.20
2018-08-08T10:39:56.020Z,6.60
2018-08-08T10:42:25.127Z,6.70
2018-08-08T10:44:54.048Z,6.73
2018-08-08T10:47:22.951Z,8.27
2018-08-08T10:49:52.376Z,8.73
2018-08-08T10:52:21.255Z,6.97
2018-08-08T10:54:50.398Z,5.53
2018-08-08T10:57:19.604Z,5.50
2018-08-08T10:59:48.520Z,4.73
2018-08-08T11:02:17.677Z,6.50
2018-08-08T11:04:46.685Z,4.83
2018-08-08T11:07:15.816Z,5.87
2018-08-08T11:09:45.002Z,4.80
2018-08-08T11:12:14.256Z,4.37
2018-08-08T11:14:43.465Z,4.50
2018-08-08T11:17:12.367Z,6.40
2018-08-08T11:19:41.305Z,4.90
2018-08-08T11:22:10.223Z,6.43
2018-08-08T11:24:39.224Z,5.30
2018-08-08T11:27:08.486Z,11.03
2018-08-08T11:29:37.594Z,20.17
2018-08-08T11:32:06.585Z,4.50
2018-08-08T11:34:35.705Z,5.77
2018-08-08T11:37:04.836Z,8.30
2018-08-08T11:39:33.746Z,4.60
2018-08-08T11:42:02.735Z,7.23
2018-08-08T11:44:31.637Z,4.57
2018-08-08T11:47:00.678Z,9.93
2018-08-08T11:49:29.670Z,5.47
2018-08-08T11:51:58.600Z,10.40
2018-08-08T11:54:27.469Z,5.37
2018-08-08T11:56:57.017Z,5.20
2018-08-08T11:59:25.956Z,6.03
2018-08-08T12:01:54.866Z,9.47
2018-08-08T12:04:23.780Z,4.70
2018-08-08T12:06:52.658Z,4.60
2018-08-08T12:09:21.605Z,4.73
2018-08-08T12:11:50.516Z,4.50
2018-08-08T12:14:19.411Z,4.57
2018-08-08T12:16:48.630Z,4.93
2018-08-08T12:19:17.615Z,5.00
2018-08-08T12:21:46.563Z,6.87
2018-08-08T12:24:15.466Z,5.03
2018-08-08T12:26:44.381Z,5.13
2018-08-08T12:29:13.319Z,7.13
2018-08-08T12:31:42.274Z,7.40
2018-08-08T12:34:11.385Z,4.70
2018-08-08T12:36:40.570Z,11.70
2018-08-08T12:39:10.488Z,8.43
2018-08-08T12:41:39.372Z,4.80
2018-08-08T12:44:08.278Z,5.73
2018-08-08T12:46:37.509Z,6.97
2018-08-08T12:49:06.447Z,5.00
2018-08-08T12:51:35.315Z,5.20
2018-08-08T12:54:04.300Z,5.23
2018-08-08T12:56:33.428Z,7.37
2018-08-08T12:59:02.370Z,4.77
2018-08-08T13:01:31.415Z,5.60
2018-08-08T13:04:00.291Z,8.07
2018-08-08T13:06:30.858Z,6.17
2018-08-08T13:08:59.759Z,5.20
2018-08-08T13:11:28.683Z,7.67
2018-08-08T13:13:57.679Z,5.67
2018-08-08T13:16:27.094Z,6.63
2018-08-08T13:18:55.993Z,6.17
2018-08-08T13:21:25.350Z,5.37
2018-08-08T13:23:54.292Z,4.90
2018-08-08T13:26:23.173Z,4.20
2018-08-08T13:28:52.862Z,6.57
2018-08-08T13:31:21.752Z,5.30
2018-08-08T13:33:50.803Z,4.50
2018-08-08T13:36:19.743Z,10.27
2018-08-08T13:38:48.662Z,7.90
2018-08-08T13:41:17.671Z,5.73
2018-08-08T13:43:46.815Z,5.20
2018-08-08T13:46:15.760Z,5.50
2018-08-08T13:48:45.094Z,4.63
2018-08-08T13:51:13.951Z,4.70
2018-08-08T13:53:43.444Z,4.10
2018-08-08T13:56:12.371Z,6.47
2018-08-08T13:58:41.266Z,4.90
2018-08-08T14:01:10.330Z,6.10
2018-08-08T14:03:39.575Z,4.60
2018-08-08T14:06:08.555Z,7.03
2018-08-08T14:08:37.766Z,9.33
2018-08-08T14:11:06.916Z,6.00
2018-08-08T14:13:35.847Z,5.67
2018-08-08T14:16:04.830Z,3.97
2018-08-08T14:18:34.005Z,7.53
2018-08-08T14:21:03.249Z,7.83
2018-08-08T14:23:32.462Z,8.27
2018-08-08T14:26:01.338Z,4.33
2018-08-08T14:28:30.536Z,4.30
2018-08-08T14:30:59.429Z,4.03
2018-08-08T14:33:28.637Z,4.23
2018-08-08T14:35:57.563Z,6.23
2018-08-08T14:38:26.552Z,4.13
2018-08-08T14:40:55.816Z,5.07
2018-08-08T14:43:24.707Z,9.63
2018-08-08T14:45:53.609Z,8.63
2018-08-08T14:48:22.551Z,3.77
2018-08-08T14:50:51.890Z,4.17
2018-08-08T14:53:20.758Z,4.13
2018-08-08T14:55:49.921Z,4.90
2018-08-08T14:58:18.860Z,4.10
2018-08-08T15:00:47.731Z,9.23
2018-08-08T15:03:17.049Z,24.93
2018-08-08T15:05:45.993Z,10.90
2018-08-08T15:08:14.915Z,17.90
2018-08-08T15:10:43.934Z,9.70
2018-08-08T15:13:12.845Z,17.10
2018-08-08T15:15:42.068Z,9.43
2018-08-08T15:18:11.244Z,19.63
2018-08-08T15:20:40.216Z,7.87
2018-08-08T15:23:09.128Z,10.97
2018-08-08T15:25:38.126Z,11.80
2018-08-08T15:28:07.164Z,11.63
2018-08-08T15:30:36.047Z,9.77
2018-08-08T15:33:05.340Z,8.90
2018-08-08T15:35:34.579Z,8.23
2018-08-08T15:38:03.840Z,4.93
2018-08-08T15:40:32.705Z,4.90
2018-08-08T15:43:02.580Z,5.50
2018-08-08T15:45:32.088Z,5.23
2018-08-08T15:48:01.081Z,5.00
2018-08-08T15:50:30.062Z,9.37
2018-08-08T15:52:59.057Z,6.87
2018-08-08T15:55:28.010Z,6.57
2018-08-08T15:57:56.884Z,12.57
2018-08-08T16:00:26.119Z,5.87
2018-08-08T16:02:55.512Z,9.20
2018-08-08T16:05:24.675Z,5.93
2018-08-08T16:08:01.436Z,5.83
2018-08-08T16:10:30.897Z,5.53
2018-08-08T16:13:00.120Z,5.77
2018-08-08T16:15:29.024Z,7.50
2018-08-08T16:17:58.012Z,5.80
2018-08-08T16:20:26.926Z,5.63
2018-08-08T16:22:56.296Z,9.37
2018-08-08T16:25:25.240Z,7.10
2018-08-08T16:27:54.131Z,12.40
2018-08-08T16:30:23.057Z,10.57
2018-08-08T16:32:52.020Z,10.83
2018-08-08T16:35:21.250Z,9.73
2018-08-08T16:37:50.295Z,8.63
2018-08-08T16:40:19.218Z,6.10
2018-08-08T16:42:48.141Z,8.60
2018-08-08T16:45:17.127Z,10.13
2018-08-08T16:47:46.388Z,5.97
2018-08-08T16:50:15.261Z,9.23
2018-08-08T16:52:44.224Z,8.57
2018-08-08T16:55:13.198Z,7.13
2018-08-08T16:57:42.607Z,11.17
2018-08-08T17:00:12.646Z,9.60
2018-08-08T17:02:41.611Z,9.10
2018-08-08T17:05:11.529Z,9.20
2018-08-08T17:07:40.467Z,10.43
2018-08-08T17:10:09.851Z,9.40
2018-08-08T17:12:38.881Z,8.00
2018-08-08T17:15:08.907Z,8.07
2018-08-08T17:17:37.925Z,7.80
2018-08-08T17:20:07.567Z,11.13
2018-08-08T17:22:36.739Z,9.87
2018-08-08T17:25:06.031Z,15.27
2018-08-08T17:27:35.223Z,13.93
2018-08-08T17:30:05.211Z,9.73
2018-08-08T17:32:34.143Z,9.70
2018-08-08T17:35:03.120Z,13.70
2018-08-08T17:37:32.673Z,7.90
2018-08-08T17:40:01.540Z,10.30
2018-08-08T17:42:30.514Z,13.13
2018-08-08T17:44:59.922Z,9.30
2018-08-08T17:47:47.571Z,8.90
2018-08-08T17:50:28.560Z,11.60
2018-08-08T17:53:07.131Z,15.20
2018-08-08T17:55:49.309Z,7.20
2018-08-08T17:58:19.739Z,11.30
2018-08-08T18:00:49.011Z,21.17
2018-08-08T18:03:17.953Z,10.70
2018-08-08T18:05:47.223Z,10.63
2018-08-08T18:08:20.974Z,15.57
2018-08-08T18:10:52.112Z,13.20
2018-08-08T18:13:20.991Z,13.17
2018-08-08T18:15:49.919Z,13.30
2018-08-08T18:18:19.085Z,14.83
2018-08-08T18:20:48.357Z,20.53
2018-08-08T18:23:17.688Z,20.47
2018-08-08T18:25:46.675Z,16.13
2018-08-08T18:28:16.215Z,12.80
2018-08-08T18:30:45.095Z,19.77
2018-08-08T18:33:14.007Z,18.00
2018-08-08T18:35:42.926Z,9.90
2018-08-08T18:38:12.335Z,11.50
2018-08-08T18:40:41.163Z,15.13
2018-08-08T18:43:10.689Z,13.53
2018-08-08T18:45:39.626Z,10.37
2018-08-08T18:48:08.619Z,7.27
2018-08-08T18:50:37.857Z,7.77
2018-08-08T18:53:07.556Z,10.77
2018-08-08T18:55:36.450Z,10.70
2018-08-08T18:58:05.659Z,13.83
2018-08-08T19:00:36.415Z,10.77
2018-08-08T19:03:06.294Z,11.87
2018-08-08T19:05:35.376Z,9.93
2018-08-08T19:08:04.910Z,11.73
2018-08-08T19:10:33.867Z,9.80
2018-08-08T19:13:03.015Z,11.33
2018-08-08T19:15:32.477Z,12.07
2018-08-08T19:18:01.410Z,11.07
2018-08-08T19:20:30.604Z,13.77
2018-08-08T19:23:01.783Z,9.80
2018-08-08T19:25:30.737Z,13.77
2018-08-08T19:27:59.906Z,10.20
2018-08-08T19:30:29.412Z,16.63
2018-08-08T19:32:58.778Z,12.27
2018-08-08T19:35:27.736Z,13.40
2018-08-08T19:37:57.604Z,15.00
2018-08-08T19:40:28.346Z,13.70
2018-08-08T19:42:58.216Z,14.23
2018-08-08T19:45:27.235Z,13.33
2018-08-08T19:47:56.212Z,23.73
2018-08-08T19:50:25.399Z,12.70
2018-08-08T19:52:56.364Z,18.60
2018-08-08T19:55:25.659Z,16.90
2018-08-08T19:57:54.567Z,15.40
2018-08-08T20:00:23.552Z,17.17
2018-08-08T20:02:52.693Z,12.27
2018-08-08T20:05:21.697Z,20.20
2018-08-08T20:07:50.623Z,13.10
2018-08-08T20:10:19.572Z,15.63
2018-08-08T20:12:48.529Z,18.03
2018-08-08T20:15:17.511Z,16.37
2018-08-08T20:17:46.445Z,18.90
2018-08-08T20:20:15.334Z,12.83
2018-08-08T20:22:44.826Z,15.90
2018-08-08T20:25:14.519Z,13.47
2018-08-08T20:27:43.547Z,13.20
2018-08-08T20:30:12.827Z,18.77
2018-08-08T20:32:41.898Z,21.43
2018-08-08T20:35:11.127Z,13.27
2018-08-08T20:37:40.046Z,15.30
2018-08-08T20:40:09.307Z,15.37
2018-08-08T20:42:38.333Z,15.27
2018-08-08T20:45:07.234Z,18.37
2018-08-08T20:47:36.235Z,14.43
2018-08-08T20:50:05.157Z,14.67
2018-08-08T20:52:34.861Z,12.47
2018-08-08T20:55:03.808Z,15.20
2018-08-08T20:57:33.073Z,14.83
2018-08-08T21:00:02.766Z,13.80
2018-08-08T21:02:31.968Z,17.07
2018-08-08T21:05:01.267Z,16.23
2018-08-08T21:07:30.785Z,13.73
2018-08-08T21:09:59.697Z,21.30
2018-08-08T21:12:28.623Z,15.03
2018-08-08T21:14:57.948Z,12.23
2018-08-08T21:17:26.873Z,18.33
2018-08-08T21:19:55.797Z,11.03
2018-08-08T21:22:24.806Z,17.93
2018-08-08T21:24:53.685Z,16.20
2018-08-08T21:27:22.874Z,12.30
2018-08-08T21:29:52.006Z,14.57
2018-08-08T21:32:20.934Z,12.30
2018-08-08T21:34:49.959Z,13.03
2018-08-08T21:37:19.207Z,15.23
2018-08-08T21:39:48.082Z,12.00
2018-08-08T21:42:16.958Z,22.87
2018-08-08T21:44:45.875Z,13.80
2018-08-08T21:47:14.785Z,16.93
2018-08-08T21:49:43.814Z,16.37
2018-08-08T21:52:12.775Z,11.57
2018-08-08T21:54:53.443Z,10.70
2018-08-08T21:57:33.876Z,15.97
2018-08-08T22:00:14.331Z,11.07
2018-08-08T22:02:55.391Z,10.70
2018-08-08T22:05:36.008Z,18.10
2018-08-08T22:08:16.311Z,12.40
2018-08-08T22:10:56.646Z,14.53
2018-08-08T22:13:36.992Z,14.17
2018-08-08T22:16:17.618Z,16.73
2018-08-08T22:18:58.385Z,18.70
2018-08-08T22:21:27.551Z,11.17
2018-08-08T22:23:58.139Z,11.87
2018-08-08T22:26:28.136Z,16.60
2018-08-08T22:28:57.604Z,19.10
2018-08-08T22:31:26.712Z,21.23
2018-08-08T22:33:57.350Z,20.27
2018-08-08T22:36:26.313Z,13.30
2018-08-08T22:38:55.226Z,13.40
2018-08-08T22:41:24.167Z,13.30
2018-08-08T22:43:53.435Z,13.77
2018-08-08T22:46:22.847Z,17.40
2018-08-08T22:48:51.761Z,15.63
2018-08-08T22:51:20.966Z,13.23
2018-08-08T22:53:49.880Z,13.67
2018-08-08T22:56:18.767Z,14.80
2018-08-08T22:58:47.694Z,13.97
2018-08-08T23:01:16.580Z,12.67
2018-08-08T23:03:45.479Z,15.57
2018-08-08T23:06:14.417Z,16.93
2018-08-08T23:08:43.301Z,14.20
2018-08-08T23:11:13.522Z,15.10
2018-08-08T23:13:43.243Z,16.47
2018-08-08T23:16:12.334Z,11.70
2018-08-08T23:18:41.244Z,11.40
2018-08-08T23:21:10.178Z,17.50
2018-08-08T23:23:39.066Z,11.30
2018-08-08T23:26:07.982Z,12.60
2018-08-08T23:28:37.049Z,13.93
2018-08-08T23:31:06.043Z,16.10
2018-08-08T23:33:34.939Z,15.30
2018-08-08T23:36:04.126Z,19.03
2018-08-08T23:38:33.069Z,17.07
2018-08-08T23:41:01.961Z,17.10
2018-08-08T23:43:31.105Z,13.43
2018-08-08T23:45:59.998Z,12.57
2018-08-08T23:48:29.659Z,16.07
2018-08-08T23:50:58.663Z,14.43
2018-08-08T23:53:27.794Z,15.07
2018-08-08T23:55:57.035Z,14.90
2018-08-08T23:58:26.229Z,18.53
